Sign-in with your pilot id or email, or register

ICAO: EDDF Name / Country: Frankfurt Airport / Germany
Latitude: 50.0406 Longitude: 8.55603
Total Arrivals:
Strict Standards: Non-static method AirportData::getarrflights() should not be called statically, assuming $this from incompatible context in /var/www/customers/vh-7192/web/home/phpvms/core/templates/airport_info.tpl on line 18
4
Total Departures:
Strict Standards: Non-static method AirportData::getdeptflights() should not be called statically, assuming $this from incompatible context in /var/www/customers/vh-7192/web/home/phpvms/core/templates/airport_info.tpl on line 21
0
Latest Arrival: MTA522 (LHBP-EDDF) Laszlo Bartucz Latest Departure: (-)
Metar: EDDF 060350Z 01005KT CAVOK 07/M00 Q1020 NOSIG
More info

Charts for EDDF


NOTAM


Warning: file_get_contents(http://api.vateud.net/notams/EDDF.json): failed to open stream: Redirection limit reached, aborting in /var/www/customers/vh-7192/web/home/phpvms/core/common/NOTAMSData.class.php on line 18

Warning: Invalid argument supplied for foreach() in /var/www/customers/vh-7192/web/home/phpvms/core/common/NOTAMSData.class.php on line 22

Frankfurt Airport